Green City, MO (63545)

11:29 PM CST on February 12, 2016 (GMT -0600)
Unionville MO | | Change Station
CLOSE
Current Station
Personal Weather Station
Location: Unionville, MO
Elevation: 1053 ft
Nearby Weather Stations

Elev 1053 ft 40.39 °N, 93.06 °W | Updated 1 second ago

Partly Cloudy
Partly Cloudy
7.5 °F
Feels Like -5 °F
N
8.3
Wind Variable Wind from NW
Gusts 9.8 mph

Today
High -- | Low -- °F
--% Chance of Precip.
Yesterday
High -- | Low -- °F
Precip. -- in
Pressure 30.66 in
Visibility 10.0 miles
Clouds Clear
Windchill -5 °F
Dew Point -6 °F
Humidity 53%
Rainfall 0.00 in
Snow Depth Not available.
7:09 AM 5:43 PM
Waxing Crescent, 27% visible
METAR KIRK 130455Z AUTO 33011KT 10SM CLR M12/M17 A3059 RMK AO2 SLP381 T11171172
Pressure 30.66 in
Visibility 10.0 miles
Clouds Clear
Windchill -5 °F
Dew Point -6 °F
Humidity 53%
Rainfall 0.00 in
Snow Depth Not available.
7:09 AM 5:43 PM
Waxing Crescent, 27% visible
METAR KIRK 130455Z AUTO 33011KT 10SM CLR M12/M17 A3059 RMK AO2 SLP381 T11171172

10-Day Weather Forecast

Almanac

Astronomy

Feb. 12, 2016 Rise Set
Actual Time
Civil Twilight
Nautical Twilight
Astronomical Twilight
Moon
Length of Visible Light
Length of Day
Tomorrow will be .
, % of the Moon is Illuminated

Today's Extremes

State Highs State Lows

Community

WunderPhotos

Upload Photos

1,892,507 photos uploaded!

WunderBlog® & News

Nearby

Air Quality

  Air Quality AQ Index Pollutant
Not available.

Snow Depth

Station Depth Elevation

Earthquake Activity

City Distance Mag. Time & Date
Minimum magnitude displayed is 2.5.

Coastal Water Temperatures

Place Temperature

Stations

Nearby Weather Stations

Station Location Temp. Windchill Dew Point Humidity Wind Precip. Elev Updated Type
                   

Watches & Warnings

There are currently no watches in effect.